createdAt,value
2023-02-17T00:03:47.602Z,4.87
2023-02-17T00:08:46.807Z,4.72
2023-02-17T00:13:56.943Z,4.32
2023-02-17T00:18:58.650Z,4.36
2023-02-17T00:24:11.486Z,4.55
2023-02-17T00:29:08.658Z,4.75
2023-02-17T00:34:09.683Z,4.38
2023-02-17T00:39:17.309Z,4.70
2023-02-17T00:44:23.532Z,4.91
2023-02-17T00:49:27.642Z,4.31
2023-02-17T00:54:24.768Z,4.78
2023-02-17T00:59:23.994Z,4.78
2023-02-17T01:04:21.275Z,4.50
2023-02-17T01:09:19.076Z,4.67
2023-02-17T01:14:24.004Z,5.09
2023-02-17T01:19:21.209Z,5.05
2023-02-17T01:24:21.302Z,4.75
2023-02-17T01:29:21.568Z,4.60
2023-02-17T01:34:22.076Z,4.97
2023-02-17T01:39:22.463Z,4.72
2023-02-17T01:44:23.090Z,4.58
2023-02-17T01:49:33.476Z,4.77
2023-02-17T01:54:41.572Z,4.57
2023-02-17T01:59:42.856Z,4.61
2023-02-17T02:04:45.855Z,4.96
2023-02-17T02:09:49.376Z,5.00
2023-02-17T02:14:52.569Z,5.07
2023-02-17T02:20:37.479Z,4.71
2023-02-17T02:26:12.925Z,4.70
2023-02-17T02:31:29.599Z,4.75
2023-02-17T02:36:29.913Z,4.64
2023-02-17T02:41:31.664Z,5.09
2023-02-17T02:46:28.939Z,4.81
2023-02-17T02:51:40.642Z,4.71
2023-02-17T02:56:49.375Z,5.23
2023-02-17T03:01:53.924Z,4.55
2023-02-17T03:06:56.892Z,4.74
2023-02-17T03:11:57.099Z,4.59
2023-02-17T03:16:56.296Z,4.55
2023-02-17T03:22:04.438Z,4.41
2023-02-17T03:27:10.582Z,4.97
2023-02-17T03:32:08.411Z,4.77
2023-02-17T03:37:12.219Z,4.36
2023-02-17T03:42:09.510Z,4.17
2023-02-17T03:47:11.882Z,3.90
2023-02-17T03:52:16.021Z,4.47
2023-02-17T03:57:17.574Z,4.32
2023-02-17T04:02:19.574Z,3.91
2023-02-17T04:07:17.546Z,4.40
2023-02-17T04:12:14.605Z,4.33
2023-02-17T04:17:15.993Z,4.11
2023-02-17T04:22:18.299Z,4.09
2023-02-17T04:27:23.871Z,4.41
2023-02-17T04:32:25.138Z,4.51
2023-02-17T04:37:24.539Z,4.42
2023-02-17T04:42:25.247Z,5.01
2023-02-17T04:47:22.668Z,5.04
2023-02-17T04:52:23.061Z,4.83
2023-02-17T04:57:23.641Z,4.83
2023-02-17T05:02:30.108Z,4.84
2023-02-17T05:07:50.515Z,5.41
2023-02-17T05:12:54.037Z,5.43
2023-02-17T05:17:57.332Z,4.98
2023-02-17T05:22:56.102Z,5.13
2023-02-17T05:28:00.090Z,5.61
2023-02-17T05:33:38.985Z,5.10
2023-02-17T05:38:58.932Z,5.71
2023-02-17T05:44:15.342Z,5.31
2023-02-17T05:49:16.530Z,5.60
2023-02-17T05:54:14.286Z,6.15
2023-02-17T05:59:18.017Z,5.93
2023-02-17T06:04:25.117Z,6.58
2023-02-17T06:09:39.974Z,6.20
2023-02-17T06:14:54.274Z,6.52
2023-02-17T06:20:04.226Z,6.91
2023-02-17T06:25:36.291Z,7.70
2023-02-17T06:30:44.032Z,7.85
2023-02-17T06:36:49.292Z,8.21
2023-02-17T06:41:59.239Z,8.58
2023-02-17T06:47:30.431Z,8.90
2023-02-17T06:52:40.367Z,9.19
2023-02-17T06:57:47.513Z,9.04
2023-02-17T07:02:59.326Z,9.27
2023-02-17T07:08:06.591Z,9.39
2023-02-17T07:13:16.468Z,9.79
2023-02-17T07:23:36.089Z,9.91
2023-02-17T07:28:49.533Z,9.84
2023-02-17T07:33:54.790Z,10.53
2023-02-17T07:38:56.479Z,10.36
2023-02-17T07:44:11.483Z,10.59
2023-02-17T07:49:40.871Z,10.84
2023-02-17T07:54:45.165Z,11.38
2023-02-17T08:00:24.244Z,11.24
2023-02-17T08:05:51.826Z,10.89
2023-02-17T08:11:23.242Z,11.15
2023-02-17T08:16:29.540Z,11.22
2023-02-17T08:21:41.539Z,10.88
2023-02-17T08:26:57.932Z,10.66
2023-02-17T08:32:02.878Z,10.38
2023-02-17T08:37:15.326Z,10.60
2023-02-17T08:42:50.341Z,10.75
2023-02-17T08:47:50.934Z,10.42
2023-02-17T08:52:54.175Z,11.00
2023-02-17T08:58:22.661Z,10.86
2023-02-17T09:03:20.289Z,10.82
2023-02-17T09:08:35.174Z,11.24
2023-02-17T09:13:52.964Z,11.64
2023-02-17T09:18:57.487Z,12.13
2023-02-17T09:24:42.556Z,12.16
2023-02-17T09:30:02.337Z,12.71
2023-02-17T09:59:43.771Z,12.84
2023-02-17T10:05:52.319Z,12.24
2023-02-17T10:11:32.634Z,12.12
2023-02-17T10:23:24.011Z,12.59
2023-02-17T10:28:46.202Z,12.45
2023-02-17T10:34:20.453Z,12.20
2023-02-17T10:39:49.427Z,12.76
2023-02-17T10:45:11.389Z,13.00
2023-02-17T10:50:35.270Z,13.27
2023-02-17T10:55:52.301Z,13.91
2023-02-17T11:01:05.748Z,14.06
2023-02-17T11:06:33.346Z,14.77
2023-02-17T11:12:10.653Z,15.09
2023-02-17T11:36:55.561Z,15.96
2023-02-17T11:55:59.472Z,16.57
2023-02-17T12:01:19.991Z,16.81
2023-02-17T12:06:39.216Z,16.47
2023-02-17T12:17:58.512Z,17.22
2023-02-17T12:23:12.194Z,17.16
2023-02-17T12:28:43.914Z,16.87
2023-02-17T12:33:57.312Z,16.81
2023-02-17T12:39:11.846Z,17.09
2023-02-17T12:49:46.196Z,17.12
2023-02-17T12:55:03.088Z,17.49
2023-02-17T13:00:14.936Z,17.15
2023-02-17T13:05:24.295Z,17.25
2023-02-17T13:10:57.937Z,17.63
2023-02-17T13:16:16.125Z,17.30
2023-02-17T13:21:44.840Z,17.35
2023-02-17T13:26:56.859Z,17.43
2023-02-17T13:32:10.086Z,17.00
2023-02-17T13:37:38.662Z,16.35
2023-02-17T13:42:55.542Z,15.98
2023-02-17T13:48:01.652Z,15.73
2023-02-17T13:53:07.399Z,15.45
2023-02-17T13:58:44.318Z,15.57
2023-02-17T14:03:58.689Z,15.10
2023-02-17T14:09:03.696Z,15.10
2023-02-17T14:14:07.595Z,14.73
2023-02-17T14:19:14.628Z,15.04
2023-02-17T14:24:48.943Z,14.82
2023-02-17T14:30:09.294Z,14.96
2023-02-17T14:42:34.656Z,14.52
2023-02-17T14:47:35.183Z,14.68
2023-02-17T14:52:36.652Z,14.58
2023-02-17T14:57:45.801Z,14.22
2023-02-17T15:08:33.462Z,13.69
2023-02-17T15:13:54.337Z,13.65
2023-02-17T15:19:34.893Z,13.54
2023-02-17T15:24:52.309Z,13.72
2023-02-17T15:30:22.868Z,13.70
2023-02-17T15:35:35.349Z,13.02
2023-02-17T15:41:16.502Z,12.83
2023-02-17T15:46:22.476Z,13.00
2023-02-17T15:51:24.316Z,12.83
2023-02-17T15:56:48.032Z,12.85
2023-02-17T16:02:10.195Z,12.86
2023-02-17T16:07:24.230Z,12.77
2023-02-17T16:12:30.625Z,12.25
2023-02-17T16:17:41.799Z,12.59
2023-02-17T16:22:50.358Z,12.05
2023-02-17T16:28:10.881Z,12.26
2023-02-17T16:33:14.007Z,12.31
2023-02-17T16:38:55.576Z,11.87
2023-02-17T16:44:25.415Z,11.85
2023-02-17T16:49:51.718Z,11.26
2023-02-17T16:54:51.956Z,11.69
2023-02-17T17:05:31.409Z,10.91
2023-02-17T17:10:54.359Z,10.73
2023-02-17T17:16:19.419Z,10.88
2023-02-17T17:21:23.887Z,11.29
2023-02-17T17:26:30.710Z,10.72
2023-02-17T17:31:37.256Z,10.71
2023-02-17T17:36:41.297Z,11.14
2023-02-17T17:42:06.050Z,10.61
2023-02-17T17:48:10.897Z,10.96
2023-02-17T17:53:29.255Z,10.40
2023-02-17T17:58:47.242Z,10.85
2023-02-17T18:04:11.231Z,10.71
2023-02-17T18:09:31.743Z,10.32
2023-02-17T18:14:34.181Z,10.75
2023-02-17T18:20:12.594Z,10.75
2023-02-17T18:25:15.714Z,10.94
2023-02-17T18:30:43.747Z,10.96
2023-02-17T18:35:57.824Z,10.99
2023-02-17T18:41:20.800Z,10.43
2023-02-17T18:46:30.056Z,10.54
2023-02-17T18:51:55.423Z,10.80
2023-02-17T19:03:09.325Z,10.52
2023-02-17T19:08:39.953Z,10.34
2023-02-17T19:14:12.935Z,10.27
2023-02-17T19:19:42.598Z,10.52
2023-02-17T19:24:54.610Z,10.02
2023-02-17T19:30:33.559Z,10.18
2023-02-17T19:35:43.922Z,9.98
2023-02-17T19:48:09.199Z,9.96
2023-02-17T19:59:30.449Z,10.15
2023-02-17T20:10:31.926Z,10.09
2023-02-17T20:22:42.053Z,9.45
2023-02-17T20:29:18.411Z,10.16
2023-02-17T20:35:08.763Z,10.09
2023-02-17T20:41:18.940Z,9.44
2023-02-17T20:46:36.538Z,9.98
2023-02-17T20:57:29.591Z,9.93
2023-02-17T21:03:12.848Z,9.42
2023-02-17T21:08:47.928Z,9.78
2023-02-17T21:13:51.035Z,9.34
2023-02-17T21:18:53.149Z,9.68
2023-02-17T21:23:53.683Z,9.69
2023-02-17T21:28:54.791Z,9.28
2023-02-17T21:34:23.651Z,9.77
2023-02-17T21:39:43.972Z,9.52
2023-02-17T21:45:04.473Z,9.19
2023-02-17T21:50:22.407Z,9.21
2023-02-17T21:55:37.149Z,9.22
2023-02-17T22:00:42.153Z,9.03
2023-02-17T22:05:54.071Z,9.56
2023-02-17T22:10:58.046Z,9.31
2023-02-17T22:16:00.813Z,9.65
2023-02-17T22:21:11.998Z,9.28
2023-02-17T22:26:25.121Z,9.20
2023-02-17T22:31:29.678Z,9.07
2023-02-17T22:36:30.217Z,9.23
2023-02-17T22:41:28.506Z,9.70
2023-02-17T22:46:26.694Z,9.31
2023-02-17T22:51:35.476Z,9.66
2023-02-17T22:56:40.217Z,9.26
2023-02-17T23:01:51.994Z,9.90
2023-02-17T23:06:49.476Z,9.78
2023-02-17T23:11:49.864Z,9.57
2023-02-17T23:17:01.942Z,9.77
2023-02-17T23:22:16.920Z,9.36
2023-02-17T23:27:16.021Z,9.46
2023-02-17T23:32:18.839Z,9.55
2023-02-17T23:37:24.976Z,9.61
2023-02-17T23:42:27.298Z,9.58
2023-02-17T23:47:31.419Z,9.29
2023-02-17T23:52:47.592Z,9.44
2023-02-17T23:57:52.451Z,9.40
